Time;durP1;ratioP1;P1;durP2;ratioP2;P2;SDS_P1;SDS_P2;PMS_P1;PMS_P2;Temp;Humidity;BMP_temperature;BMP_pressure;BME280_temperature;BME280_humidity;BME280_pressure;Samples;Min_cycle;Max_cycle;Signal;HPM_P1;HPM_P2
2021/06/12 00:02:25;;;;;;;3.85;2.70;;;;;;;23.18;49.61;101945.03;5001748;28;20525;-90
2021/06/12 00:04:50;;;;;;;3.58;2.85;;;;;;;23.16;49.50;101938.06;5001685;28;20489;-91
2021/06/12 00:07:15;;;;;;;3.70;2.67;;;;;;;23.17;49.75;101939.81;4983614;28;20026;-93
2021/06/12 00:09:41;;;;;;;3.90;2.80;;;;;;;23.16;49.70;101938.94;4967033;28;20040;-91
2021/06/12 00:12:07;;;;;;;3.72;2.65;;;;;;;23.18;49.73;101938.91;4999507;28;20027;-93
2021/06/12 00:14:33;;;;;;;3.28;2.58;;;;;;;23.15;49.45;101929.34;4996636;28;20365;-89
2021/06/12 00:16:58;;;;;;;3.10;2.45;;;;;;;23.16;49.78;101938.06;4996406;28;20034;-89
2021/06/12 00:19:24;;;;;;;3.28;2.40;;;;;;;23.16;49.70;101941.56;4979938;28;20056;-90
2021/06/12 00:21:50;;;;;;;2.75;2.42;;;;;;;23.15;49.63;101934.59;4980478;28;20050;-91
2021/06/12 00:24:15;;;;;;;3.03;2.72;;;;;;;23.16;49.76;101933.69;4995443;28;20109;-90
2021/06/12 00:26:40;;;;;;;3.13;2.83;;;;;;;23.15;49.83;101933.72;4964915;28;20034;-89
2021/06/12 00:29:06;;;;;;;3.38;2.58;;;;;;;23.16;49.64;101932.81;4982484;28;20030;-90
2021/06/12 00:31:32;;;;;;;3.60;2.70;;;;;;;23.15;49.39;101931.09;4982237;28;20034;-89
2021/06/12 00:33:57;;;;;;;3.75;2.72;;;;;;;23.18;49.69;101937.16;4999219;28;20041;-88
2021/06/12 00:36:23;;;;;;;3.03;2.58;;;;;;;23.18;49.44;101942.41;4998130;28;20062;-88
2021/06/12 00:38:50;;;;;;;3.47;2.65;;;;;;;23.18;49.66;101945.03;4982557;28;20440;-89
2021/06/12 00:41:15;;;;;;;3.05;2.30;;;;;;;23.18;49.58;101950.28;4998900;28;20484;-89
2021/06/12 00:43:44;;;;;;;3.65;2.80;;;;;;;23.17;49.86;101948.56;4982928;28;20038;-90
2021/06/12 00:46:10;;;;;;;3.42;2.60;;;;;;;23.16;49.37;101949.44;4997361;28;20069;-89
2021/06/12 00:48:37;;;;;;;3.58;2.88;;;;;;;23.17;49.44;101950.31;4997180;28;20027;-90
2021/06/12 00:51:03;;;;;;;3.72;2.53;;;;;;;23.16;49.59;101938.06;4998493;28;20030;-90
2021/06/12 00:53:40;;;;;;;4.43;2.85;;;;;;;23.14;49.62;101940.72;4981180;28;20030;-88
2021/06/12 00:56:10;;;;;;;7.20;3.00;;;;;;;23.16;49.74;101940.69;4981937;28;20030;-89
2021/06/12 00:58:41;;;;;;;5.03;2.60;;;;;;;23.15;49.71;101936.34;4995837;28;20023;-90
2021/06/12 01:01:08;;;;;;;4.25;2.63;;;;;;;23.14;49.43;101945.97;4995995;28;20026;-88
2021/06/12 01:03:33;;;;;;;5.35;2.92;;;;;;;23.16;49.70;101952.06;4994953;28;20029;-88
2021/06/12 01:06:00;;;;;;;4.68;2.80;;;;;;;23.16;49.71;101945.94;4978685;28;20485;-88
2021/06/12 01:08:25;;;;;;;4.53;2.70;;;;;;;23.11;49.66;101940.78;4996425;28;20018;-88
2021/06/12 01:10:51;;;;;;;4.97;3.10;;;;;;;23.14;49.34;101953.84;4978388;28;20088;-89
2021/06/12 01:13:38;;;;;;;5.45;2.95;;;;;;;23.12;49.42;101946.88;4962340;28;20066;-89
2021/06/12 01:16:18;;;;;;;3.58;2.70;;;;;;;23.09;49.59;101958.31;4994746;28;20070;-89
2021/06/12 01:18:46;;;;;;;4.93;2.80;;;;;;;23.10;49.51;101943.41;4995015;28;20030;-89
2021/06/12 01:21:37;;;;;;;5.22;2.90;;;;;;;23.11;49.49;101935.53;4995522;28;20030;-92
2021/06/12 01:24:35;;;;;;;4.65;2.78;;;;;;;23.10;49.68;101931.16;4994798;28;20481;-91
2021/06/12 01:27:38;;;;;;;4.82;2.88;;;;;;;23.10;49.51;101925.03;4994708;28;20036;-90
2021/06/12 01:30:18;;;;;;;6.33;2.80;;;;;;;23.10;49.52;101928.50;4994783;28;20049;-91
2021/06/12 01:32:53;;;;;;;6.80;3.30;;;;;;;23.10;49.41;101918.00;4994905;28;20030;-90
2021/06/12 01:35:33;;;;;;;6.47;3.20;;;;;;;23.11;49.52;101911.88;4996042;28;20038;-90
2021/06/12 01:38:00;;;;;;;6.00;3.28;;;;;;;23.09;49.51;101915.44;4995166;28;20026;-91
2021/06/12 01:40:30;;;;;;;5.45;3.00;;;;;;;23.09;49.50;101916.28;4994522;28;20117;-91
2021/06/12 01:42:56;;;;;;;6.00;2.90;;;;;;;23.10;49.46;101918.00;4996248;28;20034;-92
2021/06/12 01:45:23;;;;;;;6.47;3.17;;;;;;;23.10;49.45;101920.63;4995102;28;20057;-92
2021/06/12 01:47:51;;;;;;;5.57;3.22;;;;;;;23.11;49.63;101919.75;4994685;28;20022;-92
2021/06/12 01:50:17;;;;;;;4.82;2.85;;;;;;;23.12;49.37;101918.00;4994559;28;20026;-93
2021/06/12 01:52:43;;;;;;;5.63;2.88;;;;;;;23.11;49.33;101916.28;4995123;28;20050;-90
2021/06/12 01:55:12;;;;;;;4.78;2.90;;;;;;;23.09;49.41;101921.53;4995636;28;20039;-92
2021/06/12 01:57:41;;;;;;;4.88;3.00;;;;;;;23.10;49.35;101923.25;4998268;28;20023;-92
2021/06/12 02:00:08;;;;;;;5.68;2.90;;;;;;;23.10;49.22;101918.00;5006509;28;20030;-92
2021/06/12 02:02:34;;;;;;;5.57;3.17;;;;;;;23.07;49.17;101914.59;4987151;28;20430;-92
2021/06/12 02:05:01;;;;;;;5.85;3.00;;;;;;;23.08;49.47;101926.81;4996834;28;20038;-92
2021/06/12 02:07:29;;;;;;;5.60;2.97;;;;;;;23.07;49.30;101922.47;4995258;28;20022;-91
2021/06/12 02:09:55;;;;;;;4.60;2.60;;;;;;;23.08;49.45;101914.56;4978171;28;20030;-90
2021/06/12 02:12:22;;;;;;;5.13;3.00;;;;;;;23.07;49.69;101906.72;4978193;28;20022;-91
2021/06/12 02:14:49;;;;;;;7.43;3.20;;;;;;;23.07;49.47;101906.72;4994304;28;20022;-90
2021/06/12 02:17:16;;;;;;;4.32;2.80;;;;;;;23.07;49.30;101911.97;4994030;28;20018;-91
2021/06/12 02:19:42;;;;;;;4.82;2.88;;;;;;;23.09;49.50;101918.06;4993685;28;20420;-91
2021/06/12 02:22:08;;;;;;;4.88;2.72;;;;;;;23.08;49.60;101919.81;4993681;28;20036;-89
2021/06/12 02:24:34;;;;;;;4.60;2.60;;;;;;;23.08;49.21;101930.31;4978118;28;20094;-93
2021/06/12 02:27:01;;;;;;;5.55;2.95;;;;;;;23.07;49.58;101918.06;4993738;28;20481;-91
2021/06/12 02:29:27;;;;;;;5.57;3.13;;;;;;;23.05;49.56;101916.38;4994089;28;20113;-91
2021/06/12 02:32:02;;;;;;;5.20;2.80;;;;;;;23.08;49.37;101924.19;4977763;28;20030;-91
2021/06/12 02:34:29;;;;;;;4.22;2.88;;;;;;;23.07;49.45;101927.72;4994395;28;20130;-93
2021/06/12 02:36:55;;;;;;;5.75;3.13;;;;;;;23.07;49.36;101918.06;4994727;28;20027;-91
2021/06/12 02:39:20;;;;;;;4.95;3.10;;;;;;;23.06;49.09;101921.59;4977291;28;20036;-93
2021/06/12 02:41:46;;;;;;;5.65;2.72;;;;;;;23.07;49.15;101918.06;4977836;28;20053;-92
2021/06/12 02:44:11;;;;;;;5.50;3.00;;;;;;;23.08;49.29;101916.31;4993743;28;20039;-90
2021/06/12 02:46:40;;;;;;;4.55;2.50;;;;;;;23.05;49.38;101911.97;4993888;28;20031;-92
2021/06/12 02:49:09;;;;;;;5.22;2.60;;;;;;;23.05;49.13;101914.59;4994185;28;20057;-90
2021/06/12 02:51:38;;;;;;;3.97;2.63;;;;;;;23.06;49.29;101904.97;4996130;28;20473;-91
2021/06/12 02:54:04;;;;;;;4.80;2.70;;;;;;;23.05;49.41;101906.72;4995724;28;20023;-91
2021/06/12 02:56:32;;;;;;;5.22;2.88;;;;;;;23.05;49.31;101911.97;4994205;28;20125;-91
2021/06/12 02:59:02;;;;;;;4.10;2.97;;;;;;;23.04;49.55;101926.00;4995884;28;20026;-91
2021/06/12 03:01:29;;;;;;;4.68;2.80;;;;;;;23.04;48.93;101919.88;4993857;28;20108;-89
2021/06/12 03:03:55;;;;;;;4.40;2.47;;;;;;;23.06;49.05;101918.09;4994443;28;20023;-89
2021/06/12 03:06:23;;;;;;;6.85;3.08;;;;;;;23.07;49.30;101925.94;4993403;28;20030;-90
2021/06/12 03:08:51;;;;;;;4.38;2.50;;;;;;;23.03;49.29;101908.50;4993608;28;20489;-90
2021/06/12 03:11:18;;;;;;;6.40;2.75;;;;;;;23.04;49.11;101906.75;4993582;28;20084;-88
2021/06/12 03:13:45;;;;;;;5.88;2.60;;;;;;;22.98;49.23;101911.19;4993631;28;20065;-88
2021/06/12 03:16:12;;;;;;;4.82;2.65;;;;;;;23.02;49.13;101922.53;4994596;28;20041;-91
2021/06/12 03:18:39;;;;;;;4.45;2.80;;;;;;;23.04;49.06;101927.75;4993256;28;20018;-91
2021/06/12 03:21:05;;;;;;;4.97;2.60;;;;;;;23.03;49.26;101926.88;4979698;28;20432;-89
2021/06/12 03:23:31;;;;;;;5.50;2.35;;;;;;;23.04;49.11;101931.25;4977053;28;20022;-89
2021/06/12 03:25:58;;;;;;;5.82;2.72;;;;;;;23.05;49.27;101932.97;4977393;28;20031;-90
2021/06/12 03:28:25;;;;;;;4.38;2.80;;;;;;;23.04;48.83;101944.38;4993182;28;20125;-91
2021/06/12 03:30:51;;;;;;;3.90;2.30;;;;;;;23.04;49.14;101941.75;4993096;28;20471;-91
2021/06/12 03:33:17;;;;;;;5.95;2.72;;;;;;;23.06;48.88;101944.34;4977151;28;20034;-89
2021/06/12 03:35:44;;;;;;;5.35;2.65;;;;;;;23.06;48.97;101947.88;4978144;28;20022;-92
2021/06/12 03:38:11;;;;;;;5.60;2.80;;;;;;;23.05;49.17;101951.34;4993699;28;20026;-91
2021/06/12 03:40:37;;;;;;;6.07;2.80;;;;;;;23.03;49.14;101963.63;4993337;28;20062;-91
2021/06/12 03:43:04;;;;;;;6.07;2.75;;;;;;;23.05;49.13;101971.50;4995006;28;20034;-91
2021/06/12 03:45:31;;;;;;;5.38;2.50;;;;;;;23.08;49.01;101955.69;4994207;28;20108;-90
2021/06/12 03:48:00;;;;;;;5.28;2.75;;;;;;;23.06;48.86;101955.75;4977732;28;20125;-90
2021/06/12 03:50:27;;;;;;;3.92;2.70;;;;;;;23.08;49.07;101967.09;4993503;28;20022;-91
2021/06/12 03:52:53;;;;;;;4.38;2.38;;;;;;;23.07;49.13;101959.22;4976984;28;20034;-89
2021/06/12 03:55:20;;;;;;;4.05;2.42;;;;;;;23.08;48.94;101956.59;4993504;28;20026;-92
2021/06/12 03:57:47;;;;;;;4.72;2.40;;;;;;;23.05;48.82;101948.72;4993349;28;20026;-91
2021/06/12 04:00:14;;;;;;;4.88;2.60;;;;;;;23.10;49.03;101954.78;4995972;28;20038;-88
2021/06/12 04:02:39;;;;;;;5.30;2.67;;;;;;;23.10;49.16;101960.03;4998108;28;20161;-91
2021/06/12 04:05:06;;;;;;;4.53;2.30;;;;;;;23.10;48.83;101957.41;4996919;28;20026;-92
2021/06/12 04:07:32;;;;;;;4.47;2.58;;;;;;;23.11;48.54;101956.53;4980462;28;20061;-91
2021/06/12 04:09:57;;;;;;;5.53;2.58;;;;;;;23.08;48.94;101961.84;4996883;28;20050;-90
2021/06/12 04:12:23;;;;;;;4.40;2.40;;;;;;;23.12;48.77;101965.25;4996676;28;20057;-89
2021/06/12 04:14:49;;;;;;;6.18;2.83;;;;;;;23.11;48.50;101961.78;4980275;28;20030;-89
2021/06/12 04:17:15;;;;;;;3.45;2.20;;;;;;;23.12;48.84;101966.13;4980380;28;20389;-91
2021/06/12 04:19:41;;;;;;;4.28;2.40;;;;;;;23.13;48.82;101964.38;5000531;28;20023;-90
2021/06/12 04:22:07;;;;;;;4.28;2.50;;;;;;;23.12;48.76;101957.38;4989409;28;20037;-91
2021/06/12 04:24:33;;;;;;;3.90;2.30;;;;;;;23.14;48.66;101960.84;5012795;28;20022;-90
2021/06/12 04:26:59;;;;;;;3.80;2.08;;;;;;;23.15;48.71;101959.97;5001159;28;20019;-90
2021/06/12 04:29:24;;;;;;;5.25;2.60;;;;;;;23.17;48.51;101958.19;4998657;28;20030;-92
2021/06/12 04:31:50;;;;;;;5.30;2.45;;;;;;;23.19;48.58;101957.28;4996739;28;20045;-91
2021/06/12 04:34:15;;;;;;;5.50;2.28;;;;;;;23.20;48.16;101979.16;4980263;28;20469;-90
2021/06/12 04:36:41;;;;;;;4.72;2.30;;;;;;;23.22;48.30;101987.88;4980333;28;20026;-91
2021/06/12 04:39:06;;;;;;;4.50;2.30;;;;;;;23.20;48.49;101977.38;4995841;28;20092;-91
2021/06/12 04:41:32;;;;;;;3.80;2.45;;;;;;;23.20;48.26;101977.38;4995896;28;20034;-92
2021/06/12 04:43:58;;;;;;;5.72;2.30;;;;;;;23.20;48.19;101972.13;4980369;28;20512;-90
2021/06/12 04:46:23;;;;;;;3.90;2.13;;;;;;;23.25;48.53;101976.44;4979733;28;20081;-90
2021/06/12 04:48:49;;;;;;;3.33;2.10;;;;;;;23.23;48.34;101979.09;4996381;28;20452;-87
2021/06/12 04:51:14;;;;;;;4.68;2.47;;;;;;;23.21;48.35;101983.50;4996638;28;20034;-88
2021/06/12 04:53:39;;;;;;;5.07;2.17;;;;;;;23.21;48.02;101988.75;4979960;28;20046;-89
2021/06/12 04:56:05;;;;;;;5.88;2.40;;;;;;;23.23;47.77;101997.47;4980912;28;20153;-90
2021/06/12 04:58:30;;;;;;;4.63;2.22;;;;;;;23.24;47.79;101999.22;4984287;28;20057;-89
2021/06/12 05:00:57;;;;;;;3.63;1.80;;;;;;;23.26;47.88;101991.34;4983296;28;20053;-89
2021/06/12 05:03:22;;;;;;;4.03;2.10;;;;;;;23.22;47.82;101984.38;4997597;28;20469;-90
2021/06/12 05:05:48;;;;;;;4.00;2.10;;;;;;;23.25;47.60;101989.59;4999445;28;20109;-89
2021/06/12 05:08:15;;;;;;;4.38;2.25;;;;;;;23.36;47.32;101991.13;4997254;28;20485;-90
2021/06/12 05:10:41;;;;;;;3.28;2.13;;;;;;;23.46;47.26;101986.63;4998498;28;20081;-90
2021/06/12 05:13:07;;;;;;;3.97;2.47;;;;;;;23.52;47.23;101985.66;4964313;28;20030;-89
2021/06/12 05:15:33;;;;;;;7.00;2.30;;;;;;;23.72;46.82;101966.94;4997344;28;20026;-90
2021/06/12 05:18:02;;;;;;;3.92;2.10;;;;;;;23.85;45.81;101972.88;4995367;28;20026;-90
2021/06/12 05:20:28;;;;;;;3.55;2.17;;;;;;;23.89;45.97;101982.41;4963825;28;20073;-89
2021/06/12 05:22:53;;;;;;;4.90;2.28;;;;;;;23.91;45.82;101978.88;4995287;28;20019;-88
2021/06/12 05:25:19;;;;;;;4.40;1.95;;;;;;;24.03;45.42;101977.78;4995718;28;20027;-88
2021/06/12 05:27:44;;;;;;;4.05;2.30;;;;;;;24.17;45.15;101986.28;4995370;28;20061;-89
2021/06/12 05:30:10;;;;;;;4.13;2.10;;;;;;;24.50;44.61;101988.28;4996525;28;20030;-89
2021/06/12 05:32:38;;;;;;;6.10;2.20;;;;;;;24.43;44.14;101987.53;4995013;28;20409;-86
2021/06/12 05:35:06;;;;;;;4.13;2.08;;;;;;;24.52;44.46;101990.03;4994786;28;20068;-89
2021/06/12 05:37:33;;;;;;;5.10;2.15;;;;;;;24.89;43.01;101991.88;4979964;28;20098;-89
2021/06/12 05:39:58;;;;;;;3.55;2.00;;;;;;;24.79;43.42;101992.97;4979312;28;20050;-89
2021/06/12 05:42:24;;;;;;;3.15;1.70;;;;;;;24.83;43.27;101994.63;4962707;28;20041;-89
2021/06/12 05:44:49;;;;;;;4.93;2.20;;;;;;;24.76;43.74;101998.28;4994710;28;20054;-89
2021/06/12 05:47:14;;;;;;;4.15;2.15;;;;;;;24.51;43.98;101985.63;4995516;28;20037;-89
2021/06/12 05:49:40;;;;;;;4.28;2.00;;;;;;;24.34;43.88;101993.81;4994614;28;20456;-88
2021/06/12 05:52:06;;;;;;;3.05;2.20;;;;;;;24.35;44.11;101997.34;4994566;28;20026;-88
2021/06/12 05:54:31;;;;;;;5.00;2.10;;;;;;;24.38;44.02;102005.16;4978655;28;20079;-89
2021/06/12 05:56:58;;;;;;;4.03;1.90;;;;;;;24.30;43.79;102000.06;4978145;28;20037;-89
2021/06/12 05:59:23;;;;;;;3.97;2.03;;;;;;;24.36;43.64;102012.22;4994223;28;20400;-91
2021/06/12 06:01:49;;;;;;;4.05;2.10;;;;;;;24.14;43.78;102017.03;4965617;28;20038;-88
2021/06/12 06:04:14;;;;;;;4.60;2.05;;;;;;;24.03;45.04;102011.97;5001948;28;20037;-91
2021/06/12 06:06:40;;;;;;;5.53;2.28;;;;;;;23.95;45.34;102017.38;4997815;28;20026;-89
2021/06/12 06:09:05;;;;;;;3.05;1.90;;;;;;;23.91;45.13;102026.22;4985866;28;20027;-89
2021/06/12 06:11:31;;;;;;;4.55;1.85;;;;;;;23.84;45.14;102024.56;4996771;28;20062;-90
2021/06/12 06:13:56;;;;;;;5.93;2.00;;;;;;;23.76;45.12;102024.72;4996093;28;20419;-87
2021/06/12 06:16:22;;;;;;;5.72;2.22;;;;;;;23.74;45.21;102031.72;4995814;28;20054;-88
2021/06/12 06:18:47;;;;;;;6.03;2.35;;;;;;;23.73;45.28;102044.88;4994165;28;20027;-86
2021/06/12 06:21:13;;;;;;;6.20;2.17;;;;;;;23.72;44.90;102037.91;4993917;28;20113;-88
2021/06/12 06:23:39;;;;;;;9.20;2.28;;;;;;;23.70;45.32;102044.94;4978536;28;20037;-88
2021/06/12 06:26:06;;;;;;;50.28;14.10;;;;;;;23.35;44.85;102036.69;4994507;28;20030;-87
2021/06/12 06:28:32;;;;;;;52.95;11.82;;;;;;;23.25;45.27;102044.72;4995816;28;20043;-90
2021/06/12 06:30:57;;;;;;;27.45;8.23;;;;;;;23.26;45.41;102043.84;4996786;28;20018;-88
2021/06/12 06:33:24;;;;;;;22.85;5.93;;;;;;;23.31;45.24;102047.28;4979182;28;20063;-89
2021/06/12 06:35:51;;;;;;;23.98;6.65;;;;;;;23.76;44.11;102050.13;4979205;28;20104;-89
2021/06/12 06:38:16;;;;;;;16.77;5.70;;;;;;;24.28;42.70;102048.31;4994697;28;20514;-88
2021/06/12 06:40:42;;;;;;;21.33;5.43;;;;;;;24.56;41.92;102048.69;4980893;28;20030;-88
2021/06/12 06:43:11;;;;;;;16.40;4.75;;;;;;;24.50;42.02;102049.69;4978617;28;20125;-89
2021/06/12 06:45:36;;;;;;;26.05;4.63;;;;;;;24.59;42.35;102048.66;4993895;28;20088;-89
2021/06/12 06:48:02;;;;;;;12.43;4.10;;;;;;;24.47;41.95;102054.13;4961621;28;20042;-89
2021/06/12 06:50:29;;;;;;;10.48;4.45;;;;;;;24.33;42.30;102057.03;4961571;28;20026;-88
2021/06/12 06:52:54;;;;;;;11.57;4.15;;;;;;;24.55;41.65;102053.09;4993736;28;20026;-90
2021/06/12 06:55:19;;;;;;;13.85;3.85;;;;;;;24.19;42.06;102054.63;4979811;28;20473;-90
2021/06/12 06:57:45;;;;;;;12.18;3.70;;;;;;;24.02;42.71;102055.81;4997159;28;20026;-89
2021/06/12 07:00:11;;;;;;;9.85;3.70;;;;;;;24.01;41.82;102056.69;4995773;28;20400;-88
2021/06/12 07:02:37;;;;;;;8.68;3.10;;;;;;;23.92;42.36;102054.22;4996973;28;20030;-90
2021/06/12 07:05:03;;;;;;;9.07;3.03;;;;;;;23.68;42.74;102073.00;4994290;28;20033;-89
2021/06/12 07:07:28;;;;;;;9.93;3.45;;;;;;;23.54;42.42;102068.81;4993721;28;20508;-91
2021/06/12 07:09:54;;;;;;;8.82;2.72;;;;;;;23.55;42.04;102065.28;4993522;28;20030;-88
2021/06/12 07:12:20;;;;;;;10.15;3.58;;;;;;;23.42;42.23;102069.00;4977383;28;20037;-89
2021/06/12 07:14:48;;;;;;;10.55;3.40;;;;;;;23.40;41.73;102070.78;4995047;28;20030;-88
2021/06/12 07:17:13;;;;;;;11.25;3.40;;;;;;;23.28;41.47;102069.22;4993249;28;20031;-89
2021/06/12 07:19:39;;;;;;;10.05;3.25;;;;;;;23.17;41.83;102065.88;4978380;28;20045;-90
2021/06/12 07:22:04;;;;;;;11.48;3.35;;;;;;;22.57;42.01;102067.41;4994200;28;20050;-90
2021/06/12 07:24:31;;;;;;;8.20;3.00;;;;;;;22.62;42.09;102079.63;4994287;28;20030;-90
2021/06/12 07:26:56;;;;;;;7.97;3.13;;;;;;;22.86;41.66;102070.59;4994336;28;20022;-89
2021/06/12 07:29:21;;;;;;;8.82;3.15;;;;;;;22.95;41.83;102065.22;4994561;28;20038;-88
2021/06/12 07:31:47;;;;;;;8.85;3.10;;;;;;;23.04;41.46;102083.53;4994500;28;20413;-88
2021/06/12 07:34:12;;;;;;;9.80;3.10;;;;;;;23.13;41.11;102087.78;4981112;28;20026;-88
2021/06/12 07:36:39;;;;;;;10.30;2.97;;;;;;;23.22;41.06;102089.44;4999765;28;20088;-87
2021/06/12 07:39:06;;;;;;;8.40;2.85;;;;;;;23.31;40.94;102094.56;4998372;28;20033;-88
2021/06/12 07:41:32;;;;;;;7.28;2.65;;;;;;;23.14;41.11;102090.38;5000366;28;20049;-88
2021/06/12 07:43:58;;;;;;;8.60;2.97;;;;;;;23.07;41.29;102095.75;4999523;28;20126;-89
2021/06/12 07:46:25;;;;;;;8.27;3.03;;;;;;;22.96;41.65;102098.47;4982707;28;20101;-88
2021/06/12 07:48:50;;;;;;;13.43;3.17;;;;;;;23.14;41.21;102095.63;5000703;28;20022;-89
2021/06/12 07:51:17;;;;;;;12.68;3.65;;;;;;;23.37;40.69;102091.84;5000882;28;20031;-89
2021/06/12 07:53:43;;;;;;;10.27;2.88;;;;;;;23.39;40.76;102100.56;5000064;28;20018;-89
2021/06/12 07:56:08;;;;;;;10.15;2.92;;;;;;;23.41;40.68;102104.06;4998469;28;20053;-89
2021/06/12 07:58:34;;;;;;;11.32;2.90;;;;;;;23.34;40.98;102119.03;4997888;28;20026;-88
2021/06/12 08:00:59;;;;;;;8.70;2.80;;;;;;;23.30;41.00;102117.31;4998191;28;20117;-88
2021/06/12 08:03:24;;;;;;;10.10;3.15;;;;;;;23.42;40.38;102121.53;4997804;28;20081;-88
2021/06/12 08:05:50;;;;;;;11.48;3.05;;;;;;;23.45;40.65;102118.84;4982525;28;20023;-89
2021/06/12 08:08:16;;;;;;;14.88;3.10;;;;;;;23.53;40.63;102131.91;4997133;28;20053;-90
2021/06/12 08:10:44;;;;;;;9.82;2.85;;;;;;;23.61;40.63;102117.75;4996349;28;20029;-87
2021/06/12 08:13:10;;;;;;;9.75;3.05;;;;;;;23.84;39.88;102121.81;4996317;28;20035;-89
2021/06/12 08:15:36;;;;;;;10.15;3.53;;;;;;;23.72;40.12;102122.84;4998288;28;20362;-87
2021/06/12 08:18:02;;;;;;;10.95;3.33;;;;;;;23.80;39.29;102131.53;4999422;28;20030;-89
2021/06/12 08:20:28;;;;;;;13.38;3.17;;;;;;;24.09;38.90;102131.97;4998251;28;20026;-89
2021/06/12 08:22:53;;;;;;;8.25;3.35;;;;;;;23.68;39.79;102141.31;4981625;28;20442;-89
2021/06/12 08:25:19;;;;;;;16.10;4.93;;;;;;;24.17;38.42;102140.56;4998103;28;20028;-87
2021/06/12 08:27:45;;;;;;;16.30;4.20;;;;;;;23.28;40.77;102136.59;4999756;28;20405;-86
2021/06/12 08:30:11;;;;;;;12.43;3.45;;;;;;;22.54;47.11;102148.78;4983259;28;20481;-86
2021/06/12 08:32:39;;;;;;;12.45;3.72;;;;;;;22.46;47.06;102149.75;5008217;28;20033;-85
2021/06/12 08:35:08;;;;;;;12.75;3.15;;;;;;;22.14;50.74;102158.69;5005953;28;20543;-86
2021/06/12 08:37:35;;;;;;;16.08;3.78;;;;;;;21.78;50.93;102155.47;4998710;28;20030;-85
2021/06/12 08:40:00;;;;;;;14.27;3.55;;;;;;;22.07;51.31;102151.78;4997256;28;20089;-86
2021/06/12 08:42:26;;;;;;;13.40;3.22;;;;;;;22.02;47.24;102156.19;4966225;28;20026;-85
2021/06/12 08:44:54;;;;;;;14.35;3.55;;;;;;;21.97;50.41;102146.59;4995813;28;20385;-86
2021/06/12 08:47:20;;;;;;;12.43;3.28;;;;;;;22.07;48.09;102168.38;4995389;28;20061;-88
2021/06/12 08:49:46;;;;;;;10.57;3.42;;;;;;;21.59;49.46;102161.69;4996770;28;20393;-89
2021/06/12 08:52:11;;;;;;;13.80;3.60;;;;;;;21.85;47.89;102162.41;4979592;28;20030;-87
2021/06/12 08:54:41;;;;;;;14.15;3.42;;;;;;;21.86;49.86;102168.50;4980311;28;20027;-88
2021/06/12 08:57:07;;;;;;;12.35;3.17;;;;;;;21.84;48.49;102170.28;4995715;28;20037;-88
2021/06/12 08:59:35;;;;;;;14.68;3.85;;;;;;;21.85;49.18;102178.13;4980893;28;20026;-89
2021/06/12 09:02:01;;;;;;;11.85;3.53;;;;;;;21.81;47.94;102184.28;4981147;28;20134;-88
2021/06/12 09:04:32;;;;;;;10.95;2.88;;;;;;;21.78;50.02;102181.69;4996210;28;20057;-88
2021/06/12 09:07:22;;;;;;;14.68;3.70;;;;;;;21.70;50.28;102186.09;4995776;28;20078;-87
2021/06/12 09:09:53;;;;;;;13.75;3.17;;;;;;;21.68;50.90;102177.34;4996938;28;20110;-86
2021/06/12 09:12:19;;;;;;;14.32;3.95;;;;;;;21.71;50.97;102180.84;4995783;28;20031;-86
2021/06/12 09:15:08;;;;;;;10.50;2.95;;;;;;;21.62;49.80;102186.09;4996980;28;20067;-88
2021/06/12 09:17:52;;;;;;;10.32;2.90;;;;;;;21.67;51.11;102192.22;4995292;28;20050;-86
2021/06/12 09:20:28;;;;;;;9.40;3.05;;;;;;;21.75;51.89;102203.53;4995381;28;20114;-87
2021/06/12 09:23:18;;;;;;;11.00;3.20;;;;;;;21.75;49.88;102205.25;4995332;28;20481;-86
2021/06/12 09:25:48;;;;;;;10.50;3.45;;;;;;;21.68;50.17;102207.03;4998024;28;20553;-86
2021/06/12 09:28:16;;;;;;;9.48;3.03;;;;;;;21.69;51.45;102203.56;5000935;28;20138;-87
2021/06/12 09:30:42;;;;;;;11.70;2.97;;;;;;;21.73;49.04;102207.00;5002865;28;20033;-88
2021/06/12 09:33:08;;;;;;;10.05;3.17;;;;;;;21.75;49.86;102207.88;4997631;28;20026;-88
2021/06/12 09:35:39;;;;;;;14.07;3.00;;;;;;;21.67;49.47;102217.56;4996988;28;20026;-87
2021/06/12 09:38:29;;;;;;;12.68;3.42;;;;;;;21.54;50.99;102229.81;4996541;28;20058;-88
2021/06/12 09:40:55;;;;;;;12.77;2.90;;;;;;;21.64;50.53;102235.88;4997004;28;20066;-88
2021/06/12 09:43:29;;;;;;;9.88;3.15;;;;;;;21.75;50.09;102228.84;5003429;28;20034;-88
2021/06/12 09:45:55;;;;;;;11.05;3.13;;;;;;;21.73;50.58;102231.50;5002749;28;20069;-88
2021/06/12 09:48:22;;;;;;;9.50;2.72;;;;;;;21.77;49.11;102227.97;5003386;28;20110;-88
2021/06/12 09:50:48;;;;;;;10.13;2.92;;;;;;;21.74;51.13;102224.50;5002237;28;20109;-87
2021/06/12 09:53:16;;;;;;;10.00;3.38;;;;;;;21.81;48.31;102234.06;5004078;28;20216;-87
2021/06/12 09:55:43;;;;;;;9.40;2.95;;;;;;;21.58;49.23;102236.81;5001676;28;20031;-88
2021/06/12 09:58:09;;;;;;;10.45;3.15;;;;;;;21.62;48.58;102243.75;4993245;28;20048;-88
2021/06/12 10:00:46;;;;;;;8.60;2.63;;;;;;;21.72;47.42;102237.59;4993508;28;20121;-88
2021/06/12 10:03:19;;;;;;;10.85;3.15;;;;;;;21.78;47.67;102236.69;4993808;28;20485;-88
2021/06/12 10:05:46;;;;;;;10.35;3.00;;;;;;;21.78;50.39;102228.84;4995402;28;20077;-87
2021/06/12 10:08:16;;;;;;;11.95;2.90;;;;;;;21.81;48.38;102234.06;4995067;28;20026;-87
2021/06/12 10:10:49;;;;;;;11.57;2.97;;;;;;;21.83;47.02;102236.69;4978022;28;20026;-88
2021/06/12 10:13:17;;;;;;;10.80;2.78;;;;;;;21.80;46.68;102234.06;4993529;28;20091;-88
2021/06/12 10:15:43;;;;;;;10.52;3.00;;;;;;;21.72;48.78;102237.59;4993694;28;20033;-88
2021/06/12 10:18:09;;;;;;;9.20;2.80;;;;;;;21.74;46.45;102235.84;4977539;28;20385;-89
2021/06/12 10:20:37;;;;;;;9.50;2.90;;;;;;;21.80;47.49;102237.56;4977899;28;20116;-87
2021/06/12 10:23:03;;;;;;;9.40;2.95;;;;;;;21.80;47.82;102240.19;4977350;28;20049;-88
2021/06/12 10:25:28;;;;;;;8.52;2.50;;;;;;;21.83;48.33;102249.78;4961095;28;20485;-87
2021/06/12 10:27:54;;;;;;;9.43;2.67;;;;;;;21.87;46.63;102255.00;4977367;28;20490;-88
2021/06/12 10:30:24;;;;;;;9.82;2.92;;;;;;;21.89;45.23;102253.25;4993462;28;20030;-87
2021/06/12 10:32:52;;;;;;;10.23;2.90;;;;;;;21.93;47.05;102254.97;4993533;28;20481;-87
2021/06/12 10:35:20;;;;;;;10.95;2.95;;;;;;;21.95;47.46;102257.59;4993192;28;20027;-87
2021/06/12 10:37:58;;;;;;;11.57;3.08;;;;;;;22.00;46.99;102258.41;4993386;28;20137;-86
2021/06/12 10:40:38;;;;;;;8.77;2.40;;;;;;;22.00;47.54;102252.31;4993016;28;20384;-87
2021/06/12 10:43:08;;;;;;;6.80;2.40;;;;;;;22.03;45.78;102254.91;4993440;28;20030;-87
2021/06/12 10:45:34;;;;;;;7.85;2.60;;;;;;;22.02;45.49;102258.41;4992992;28;20033;-88
2021/06/12 10:48:00;;;;;;;7.28;2.40;;;;;;;22.04;44.86;102257.53;4993212;28;20500;-87
2021/06/12 10:50:30;;;;;;;11.57;3.05;;;;;;;22.00;47.44;102270.66;4960983;28;20046;-87
2021/06/12 10:53:33;;;;;;;8.15;2.50;;;;;;;21.97;44.70;102271.53;4993782;28;20028;-87
2021/06/12 10:56:05;;;;;;;11.02;3.00;;;;;;;22.00;44.96;102268.03;4981371;28;20062;-86
2021/06/12 10:58:30;;;;;;;7.05;2.60;;;;;;;22.10;46.26;102264.47;5002099;28;20098;-86
2021/06/12 11:01:05;;;;;;;13.27;2.80;;;;;;;22.11;49.19;102274.09;5015443;28;20010;-87
2021/06/12 11:09:14;;;;;;;7.20;2.45;;;;;;;22.10;48.92;102278.47;4998320;28;20089;-86
2021/06/12 11:11:42;;;;;;;10.15;2.70;;;;;;;22.13;52.29;102282.81;4997486;28;20030;-87
2021/06/12 11:14:23;;;;;;;12.68;3.20;;;;;;;22.14;52.97;102279.31;4965690;28;20022;-87
2021/06/12 11:20:10;;;;;;;9.73;3.28;;;;;;;22.09;54.10;102289.81;4998910;28;20036;-87
2021/06/12 11:22:52;;;;;;;10.82;3.55;;;;;;;22.05;54.99;102288.09;4998861;28;20026;-87
2021/06/12 11:25:17;;;;;;;8.32;3.30;;;;;;;21.98;55.44;102297.75;4996764;28;20445;-86
2021/06/12 11:27:54;;;;;;;7.53;3.13;;;;;;;21.95;54.22;102297.75;4996888;28;20070;-89
2021/06/12 11:30:22;;;;;;;8.57;2.95;;;;;;;21.99;54.26;102301.22;4996351;28;20030;-88
2021/06/12 11:33:00;;;;;;;10.40;3.33;;;;;;;21.97;55.27;102296.00;4996595;28;20026;-89
2021/06/12 11:35:38;;;;;;;8.98;2.90;;;;;;;21.98;55.59;102305.59;4996351;28;20018;-89